Weather History for Mosby, MO

Change the Weather History Date:

Wednesday, December 12, 2012

  Actual Average (KMKC) Record (KMKC)
Temperature  
Mean Temperature 34 °F -  
Max Temperature 50 °F 42 °F 53 °F (2006)
Min Temperature 19 °F 26 °F 1 °F (2000)
Degree Days  
Heating Degree Days 30    
Moisture  
Dew Point 16 °F    
Average Humidity 51    
Maximum Humidity 93    
Minimum Humidity 20    
Precipitation  
Precipitation 0.00 in - - ()
Sea Level Pressure  
Sea Level Pressure 30.15 in    
Wind  
Wind Speed 4 mph (South)    
Max Wind Speed 18 mph    
Max Gust Speed 24 mph    
Visibility 10 miles    
Events      
Averages and records for this station are not official NWS values.
T = Trace of Precipitation, MM = Missing Value Source: NWS Daily Summary

Daily Weather History Graph

Daily Weather History Graph

Search for Another Location

Airport:

Trip Planner

Search our weather history database for the weather conditions in past years. The results will help you decide how hot, cold, wet, or windy it might be!

Date:

Astronomy

Dec. 12, 2012 Rise Set
Actual Time 7:28 AM CST 4:54 PM CST
Civil Twilight 6:58 AM CST 5:24 PM CST
Nautical Twilight 6:24 AM CST 5:58 PM CST
Astronomical Twilight 5:51 AM CST 6:30 PM CST
Moon 6:33 AM CST (12/12) 4:32 PM CST (12/12)
Length of Visible Light 10h 26m
Length of Day
9h 26m
Waning Crescent, 1% of the Moon is Illuminated
Dec 12
Waning Crescent
Dec 13
New
Dec 19
First Quarter
Dec 28
Full
Jan 4
Last Quarter

Hourly Weather History & Observations

Time (CST) Temp. Windchill Dew Point Humidity Pressure Visibility Wind Dir Wind Speed Gust Speed Precip Events Conditions
12:15 AM 26.6 °F - 19.4 °F 74% 30.14 in 10.0 mi Calm Calm - N/A   Clear
12:35 AM 24.8 °F - 19.4 °F 80% 30.14 in 10.0 mi Calm Calm - N/A   Clear
12:55 AM 23.0 °F - 19.4 °F 86% 30.14 in 10.0 mi Calm Calm - N/A   Clear
1:15 AM 23.0 °F - 19.4 °F 86% 30.14 in 10.0 mi Calm Calm - N/A   Clear
1:35 AM 23.0 °F - 19.4 °F 86% 30.14 in 10.0 mi Calm Calm - N/A   Clear
1:55 AM 23.0 °F - 19.4 °F 86% 30.14 in 10.0 mi Calm Calm - N/A   Clear
2:15 AM 21.2 °F 16.4 °F 19.4 °F 93% 30.14 in 10.0 mi ESE 3.5 mph - N/A   Clear
2:35 AM 21.2 °F - 19.4 °F 93% 30.14 in 10.0 mi Calm Calm - N/A   Clear
2:55 AM 21.2 °F - 17.6 °F 86% 30.14 in 10.0 mi Calm Calm - N/A   Clear
3:15 AM 19.4 °F - 17.6 °F 93% 30.14 in 10.0 mi Calm Calm - N/A   Clear
3:35 AM 19.4 °F - 17.6 °F 93% 30.14 in 10.0 mi Calm Calm - N/A   Clear
3:55 AM 19.4 °F - 17.6 °F 93% 30.14 in 10.0 mi Calm Calm - N/A   Clear
4:15 AM 19.4 °F 14.3 °F 17.6 °F 93% 30.14 in 10.0 mi ESE 3.5 mph - N/A   Clear
4:35 AM 19.4 °F - 17.6 °F 93% 30.14 in 10.0 mi Calm Calm - N/A   Clear
4:55 AM 21.2 °F 16.4 °F 17.6 °F 86% 30.14 in 10.0 mi ESE 3.5 mph - N/A   Clear
5:15 AM 23.0 °F - 17.6 °F 80% 30.15 in 10.0 mi Calm Calm - N/A   Clear
5:35 AM 23.0 °F - 17.6 °F 80% 30.15 in 10.0 mi Calm Calm - N/A   Clear
5:55 AM 26.6 °F - 19.4 °F 74% 30.15 in 10.0 mi Calm Calm - N/A   Clear
6:15 AM 26.6 °F - 19.4 °F 74% 30.16 in 10.0 mi Calm Calm - N/A   Clear
6:35 AM 26.6 °F - 19.4 °F 74% 30.16 in 10.0 mi Calm Calm - N/A   Clear
6:55 AM 26.6 °F 22.6 °F 19.4 °F 74% 30.16 in 10.0 mi ESE 3.5 mph - N/A   Clear
7:15 AM 26.6 °F - 19.4 °F 74% 30.17 in 10.0 mi Calm Calm - N/A   Clear
7:35 AM 26.6 °F - 19.4 °F 74% 30.17 in 10.0 mi Calm Calm - N/A   Clear
7:55 AM 26.6 °F 22.6 °F 19.4 °F 74% 30.17 in 10.0 mi SE 3.5 mph - N/A   Clear
8:15 AM 28.4 °F 23.3 °F 19.4 °F 69% 30.18 in 10.0 mi SE 4.6 mph - N/A   Clear
8:35 AM 30.2 °F 25.4 °F 19.4 °F 64% 30.18 in 10.0 mi SSE 4.6 mph - N/A   Clear
8:55 AM 32.0 °F 27.5 °F 21.2 °F 64% 30.19 in 10.0 mi SE 4.6 mph - N/A   Clear
9:15 AM 32.0 °F 28.7 °F 21.2 °F 64% 30.20 in 10.0 mi SSE 3.5 mph - N/A   Clear
9:35 AM 33.8 °F 29.6 °F 21.2 °F 60% 30.21 in 10.0 mi SSE 4.6 mph - N/A   Clear
9:55 AM 37.4 °F 30.3 °F 19.4 °F 48% 30.22 in 10.0 mi SSW 10.4 mph - N/A   Clear
10:15 AM 39.2 °F 32.0 °F 19.4 °F 45% 30.22 in 10.0 mi SSW 11.5 mph - N/A   Clear
10:35 AM 41.0 °F 34.7 °F 19.4 °F 42% 30.22 in 10.0 mi SSW 10.4 mph 16.1 mph N/A   Clear
10:55 AM 42.8 °F 36.2 °F 17.6 °F 36% 30.22 in 10.0 mi SSW 12.7 mph - N/A   Clear
11:15 AM 42.8 °F 35.4 °F 17.6 °F 36% 30.21 in 10.0 mi South 15.0 mph - N/A   Clear
11:35 AM 44.6 °F 37.4 °F 15.8 °F 31% 30.19 in 10.0 mi SSW 16.1 mph 21.9 mph N/A   Clear
11:55 AM 46.4 °F 39.2 °F 14.0 °F 27% 30.18 in 10.0 mi South 18.4 mph 24.2 mph N/A   Clear
12:15 PM 46.4 °F 40.1 °F 14.0 °F 27% 30.17 in 10.0 mi SSW 15.0 mph 24.2 mph N/A   Clear
12:35 PM 46.4 °F 40.1 °F 14.0 °F 27% 30.17 in 10.0 mi SSW 15.0 mph 23.0 mph N/A   Clear
12:55 PM 48.2 °F - 14.0 °F 25% 30.16 in 10.0 mi SSW 15.0 mph 23.0 mph N/A   Clear
1:15 PM 48.2 °F - 14.0 °F 25% 30.15 in 10.0 mi SSW 16.1 mph 21.9 mph N/A   Clear
1:55 PM 50.0 °F - 12.2 °F 22% 30.12 in 10.0 mi South 13.8 mph 23.0 mph N/A   Clear
2:15 PM 50.0 °F - 10.4 °F 20% 30.13 in 10.0 mi SSW 13.8 mph 24.2 mph N/A   Unknown
2:35 PM 50.0 °F - 10.4 °F 20% 30.13 in 10.0 mi SSW 15.0 mph 20.7 mph N/A   Clear
2:55 PM 50.0 °F - 10.4 °F 20% 30.13 in 10.0 mi South 15.0 mph 20.7 mph N/A   Clear
3:15 PM 50.0 °F - 10.4 °F 20% 30.13 in 10.0 mi South 15.0 mph 21.9 mph N/A   Clear
3:35 PM 50.0 °F - 12.2 °F 22% 30.12 in 10.0 mi South 11.5 mph - N/A   Clear
3:55 PM 50.0 °F - 12.2 °F 22% 30.13 in 10.0 mi South 9.2 mph - N/A   Clear
4:15 PM 48.2 °F - 12.2 °F 24% 30.13 in 10.0 mi South 12.7 mph 20.7 mph N/A   Clear
4:35 PM 46.4 °F 41.5 °F 10.4 °F 23% 30.13 in 10.0 mi South 10.4 mph 17.3 mph N/A   Clear
4:55 PM 46.4 °F 41.5 °F 12.2 °F 25% 30.12 in 10.0 mi South 10.4 mph - N/A   Clear
5:15 PM 44.6 °F 39.2 °F 12.2 °F 27% 30.12 in 10.0 mi South 10.4 mph - N/A   Clear
5:35 PM 44.6 °F 39.7 °F 12.2 °F 27% 30.12 in 10.0 mi South 9.2 mph - N/A   Clear
5:55 PM 42.8 °F 38.0 °F 14.0 °F 31% 30.12 in 10.0 mi SSE 8.1 mph - N/A   Clear
6:15 PM 42.8 °F 38.0 °F 14.0 °F 31% 30.11 in 10.0 mi SSE 8.1 mph - N/A   Clear
6:35 PM 42.8 °F 38.0 °F 14.0 °F 31% 30.11 in 10.0 mi SSE 8.1 mph - N/A   Clear
6:55 PM 41.0 °F 37.1 °F 14.0 °F 33% 30.12 in 10.0 mi South 5.8 mph - N/A   Clear
7:15 PM 41.0 °F 36.4 °F 14.0 °F 33% 30.13 in 10.0 mi South 6.9 mph - N/A   Clear
7:35 PM 41.0 °F 36.4 °F 14.0 °F 33% 30.12 in 10.0 mi South 6.9 mph - N/A   Clear
7:55 PM 41.0 °F 36.4 °F 14.0 °F 33% 30.12 in 10.0 mi SSE 6.9 mph - N/A   Clear
8:15 PM 41.0 °F 35.8 °F 14.0 °F 33% 30.12 in 10.0 mi SSE 8.1 mph - N/A   Clear
8:35 PM 39.2 °F 35.9 °F 14.0 °F 36% 30.11 in 10.0 mi SSE 4.6 mph - N/A   Clear
8:55 PM 37.4 °F 33.8 °F 14.0 °F 38% 30.13 in 10.0 mi South 4.6 mph - N/A   Clear
9:15 PM 37.4 °F 34.9 °F 14.0 °F 38% 30.14 in 10.0 mi South 3.5 mph - N/A   Clear
9:35 PM 39.2 °F 35.0 °F 14.0 °F 36% 30.15 in 10.0 mi South 5.8 mph - N/A   Clear
9:55 PM 39.2 °F 35.0 °F 14.0 °F 36% 30.15 in 10.0 mi South 5.8 mph - N/A   Clear
10:15 PM 39.2 °F 34.2 °F 14.0 °F 36% 30.15 in 10.0 mi South 6.9 mph - N/A   Clear
10:35 PM 39.2 °F 35.0 °F 14.0 °F 36% 30.15 in 10.0 mi South 5.8 mph - N/A   Clear
10:55 PM 39.2 °F 33.6 °F 14.0 °F 36% 30.15 in 10.0 mi South 8.1 mph - N/A   Clear
11:15 PM 39.2 °F 32.5 °F 14.0 °F 36% 30.15 in 10.0 mi South 10.4 mph - N/A   Unknown
11:35 PM 41.0 °F 35.2 °F 14.0 °F 33% 30.15 in 10.0 mi South 9.2 mph - N/A   Clear
11:55 PM 41.0 °F 34.7 °F 14.0 °F 33% 30.15 in 10.0 mi South 10.4 mph - N/A   Clear